createdAt,value
2017-10-24T00:00:44.748Z,101641.04
2017-10-24T00:03:13.355Z,101641.88
2017-10-24T00:05:42.537Z,101637.87
2017-10-24T00:08:11.527Z,101643.52
2017-10-24T00:10:39.952Z,101645.65
2017-10-24T00:13:08.380Z,101649.98
2017-10-24T00:15:36.709Z,101652.88
2017-10-24T00:18:05.216Z,101646.90
2017-10-24T00:20:33.524Z,101655.09
2017-10-24T00:23:01.880Z,101654.52
2017-10-24T00:25:30.179Z,101655.41
2017-10-24T00:27:58.556Z,101649.19
2017-10-24T00:30:26.885Z,101659.91
2017-10-24T00:32:55.156Z,101659.59
2017-10-24T00:35:23.537Z,101653.77
2017-10-24T00:37:51.791Z,101663.43
2017-10-24T00:40:20.231Z,101658.20
2017-10-24T00:42:48.684Z,101665.98
2017-10-24T00:45:17.172Z,101670.80
2017-10-24T00:47:45.479Z,101667.60
2017-10-24T00:50:13.955Z,101674.34
2017-10-24T00:52:42.317Z,101676.15
2017-10-24T00:55:10.723Z,101678.44
2017-10-24T00:57:38.999Z,101677.34
2017-10-24T01:00:08.225Z,101670.98
2017-10-24T01:02:36.556Z,101674.09
2017-10-24T01:05:04.923Z,101666.31
2017-10-24T01:07:33.331Z,101668.28
2017-10-24T01:10:01.592Z,101669.27
2017-10-24T01:12:30.080Z,101670.23
2017-10-24T01:14:58.371Z,101667.55
2017-10-24T01:17:26.839Z,101668.62
2017-10-24T01:19:55.156Z,101666.31
2017-10-24T01:22:23.620Z,101670.80
2017-10-24T01:24:52.000Z,101674.74
2017-10-24T01:27:20.558Z,101669.53
2017-10-24T01:29:48.873Z,101667.64
2017-10-24T01:32:17.219Z,101674.69
2017-10-24T01:34:45.567Z,101673.62
2017-10-24T01:37:13.903Z,101671.08
2017-10-24T01:39:42.231Z,101675.34
2017-10-24T01:42:10.587Z,101680.98
2017-10-24T01:44:38.892Z,101673.70
2017-10-24T01:47:07.384Z,101672.94
2017-10-24T01:49:35.871Z,101674.59
2017-10-24T01:52:04.176Z,101669.53
2017-10-24T01:54:32.640Z,101674.59
2017-10-24T01:57:00.943Z,101677.13
2017-10-24T01:59:29.472Z,101669.94
2017-10-24T02:01:57.785Z,101671.34
2017-10-24T02:04:26.065Z,101666.41
2017-10-24T02:06:54.369Z,101672.95
2017-10-24T02:09:22.872Z,101676.73
2017-10-24T02:11:51.159Z,101687.70
2017-10-24T02:14:19.615Z,101696.87
2017-10-24T02:16:47.921Z,101697.69
2017-10-24T02:19:16.372Z,101698.42
2017-10-24T02:21:44.687Z,101693.77
2017-10-24T02:24:12.960Z,101695.31
2017-10-24T02:26:41.418Z,101690.64
2017-10-24T02:29:09.704Z,101692.13
2017-10-24T02:31:38.164Z,101698.99
2017-10-24T02:34:06.468Z,101691.21
2017-10-24T02:36:34.772Z,101700.38
2017-10-24T02:39:03.092Z,101707.18
2017-10-24T02:41:31.499Z,101696.70
2017-10-24T02:43:59.780Z,101702.86
2017-10-24T02:46:28.100Z,101703.43
2017-10-24T02:48:56.531Z,101710.65
2017-10-24T02:51:24.855Z,101705.39
2017-10-24T02:53:53.248Z,101705.66
2017-10-24T02:56:21.576Z,101710.64
2017-10-24T02:58:49.883Z,101705.91
2017-10-24T03:01:18.216Z,101707.35
2017-10-24T03:03:46.567Z,101710.95
2017-10-24T03:06:15.039Z,101706.12
2017-10-24T03:08:43.328Z,101714.25
2017-10-24T03:11:11.643Z,101712.45
2017-10-24T03:13:39.919Z,101710.40
2017-10-24T03:16:08.364Z,101706.28
2017-10-24T03:18:36.648Z,101710.72
2017-10-24T03:21:04.955Z,101725.14
2017-10-24T03:23:33.219Z,101725.30
2017-10-24T03:26:01.700Z,101734.78
2017-10-24T03:28:29.995Z,101726.76
2017-10-24T03:30:58.345Z,101732.33
2017-10-24T03:33:26.695Z,101731.28
2017-10-24T03:35:55.011Z,101734.70
2017-10-24T03:38:23.378Z,101735.52
2017-10-24T03:40:51.763Z,101733.30
2017-10-24T03:43:20.203Z,101733.72
2017-10-24T03:45:48.520Z,101734.63
2017-10-24T03:48:16.912Z,101728.81
2017-10-24T03:50:45.272Z,101731.03
2017-10-24T03:53:13.720Z,101735.52
2017-10-24T03:55:42.040Z,101739.22
2017-10-24T03:58:10.495Z,101742.06
2017-10-24T04:00:38.803Z,101741.44
2017-10-24T04:03:07.068Z,101741.59
2017-10-24T04:05:35.543Z,101738.66
2017-10-24T04:08:03.915Z,101739.70
2017-10-24T04:10:32.223Z,101746.25
2017-10-24T04:13:00.539Z,101749.19
2017-10-24T04:15:28.868Z,101746.34
2017-10-24T04:17:57.207Z,101744.70
2017-10-24T04:20:25.619Z,101743.47
2017-10-24T04:22:53.901Z,101750.11
2017-10-24T04:25:22.195Z,101758.77
2017-10-24T04:27:50.480Z,101753.52
2017-10-24T04:30:18.776Z,101752.23
2017-10-24T04:32:47.187Z,101761.88
2017-10-24T04:35:15.816Z,101766.39
2017-10-24T04:37:44.088Z,101760.10
2017-10-24T04:40:12.379Z,101760.27
2017-10-24T04:42:40.715Z,101756.91
2017-10-24T04:45:09.015Z,101758.45
2017-10-24T04:47:37.407Z,101756.91
2017-10-24T04:50:05.839Z,101757.48
2017-10-24T04:52:34.192Z,101752.64
2017-10-24T04:55:02.473Z,101758.11
2017-10-24T04:57:30.815Z,101756.50
2017-10-24T04:59:59.093Z,101755.67
2017-10-24T05:02:27.432Z,101757.80
2017-10-24T05:04:55.736Z,101766.88
2017-10-24T05:07:30.812Z,101759.86
2017-10-24T05:09:59.247Z,101761.16
2017-10-24T05:12:27.574Z,101755.98
2017-10-24T05:14:55.866Z,101758.45
2017-10-24T05:17:24.286Z,101755.66
2017-10-24T05:19:53.183Z,101763.94
2017-10-24T05:22:21.476Z,101756.80
2017-10-24T05:24:49.780Z,101761.47
2017-10-24T05:27:18.093Z,101753.94
2017-10-24T05:29:46.359Z,101758.20
2017-10-24T05:32:14.653Z,101761.05
2017-10-24T05:34:43.071Z,101761.55
2017-10-24T05:37:11.391Z,101769.58
2017-10-24T05:39:39.795Z,101772.02
2017-10-24T05:42:08.129Z,101776.28
2017-10-24T05:44:36.595Z,101785.77
2017-10-24T05:47:04.908Z,101783.48
2017-10-24T05:49:33.215Z,101789.87
2017-10-24T05:52:01.624Z,101791.73
2017-10-24T05:54:29.923Z,101788.38
2017-10-24T05:56:58.517Z,101793.13
2017-10-24T05:59:26.787Z,101795.59
2017-10-24T06:01:55.190Z,101796.41
2017-10-24T06:04:23.640Z,101788.06
2017-10-24T06:06:51.949Z,101791.66
2017-10-24T06:09:20.311Z,101798.30
2017-10-24T06:11:48.664Z,101796.56
2017-10-24T06:14:17.167Z,101802.87
2017-10-24T06:16:45.553Z,101811.89
2017-10-24T06:19:13.844Z,101810.84
2017-10-24T06:21:42.239Z,101819.76
2017-10-24T06:24:10.541Z,101822.05
2017-10-24T06:26:38.995Z,101818.30
2017-10-24T06:29:07.303Z,101822.28
2017-10-24T06:31:35.727Z,101820.42
2017-10-24T06:34:04.295Z,101821.30
2017-10-24T06:36:32.680Z,101824.66
2017-10-24T06:39:00.943Z,101832.44
2017-10-24T06:41:29.287Z,101831.05
2017-10-24T06:43:57.698Z,101841.20
2017-10-24T06:46:26.144Z,101846.92
2017-10-24T06:48:54.435Z,101843.51
2017-10-24T06:51:22.747Z,101840.72
2017-10-24T06:53:51.000Z,101849.90
2017-10-24T06:56:19.347Z,101850.56
2017-10-24T06:58:47.739Z,101854.48
2017-10-24T07:01:16.090Z,101854.33
2017-10-24T07:03:44.450Z,101866.60
2017-10-24T07:06:12.804Z,101864.23
2017-10-24T07:08:41.271Z,101856.45
2017-10-24T07:11:09.608Z,101858.66
2017-10-24T07:13:38.060Z,101858.82
2017-10-24T07:16:06.404Z,101862.27
2017-10-24T07:18:34.773Z,101857.11
2017-10-24T07:21:03.087Z,101854.23
2017-10-24T07:23:31.689Z,101850.87
2017-10-24T07:25:59.984Z,101848.91
2017-10-24T07:28:28.267Z,101854.48
2017-10-24T07:30:56.820Z,101854.48
2017-10-24T07:33:25.123Z,101863.98
2017-10-24T07:35:53.420Z,101853.98
2017-10-24T07:38:21.691Z,101854.39
2017-10-24T07:40:50.013Z,101861.09
2017-10-24T07:43:18.288Z,101861.09
2017-10-24T07:45:46.686Z,101863.25
2017-10-24T07:48:15.093Z,101864.07
2017-10-24T07:50:43.575Z,101866.09
2017-10-24T07:53:11.849Z,101872.07
2017-10-24T07:55:40.153Z,101864.13
2017-10-24T07:58:08.420Z,101863.40
2017-10-24T08:00:36.748Z,101861.85
2017-10-24T08:03:05.345Z,101866.75
2017-10-24T08:05:33.832Z,101864.22
2017-10-24T08:08:02.145Z,101865.45
2017-10-24T08:10:30.500Z,101866.77
2017-10-24T08:12:58.903Z,101872.91
2017-10-24T08:15:27.251Z,101869.62
2017-10-24T08:17:55.679Z,101872.88
2017-10-24T08:20:24.011Z,101870.20
2017-10-24T08:22:53.448Z,101867.07
2017-10-24T08:25:21.955Z,101868.05
2017-10-24T08:27:50.214Z,101870.84
2017-10-24T08:30:18.530Z,101861.28
2017-10-24T08:32:46.827Z,101871.50
2017-10-24T08:35:15.256Z,101861.74
2017-10-24T08:37:43.708Z,101864.37
2017-10-24T08:40:12.034Z,101857.55
2017-10-24T08:42:40.358Z,101856.98
2017-10-24T08:45:08.788Z,101850.69
2017-10-24T08:47:42.439Z,101847.80
2017-10-24T08:50:16.020Z,101845.52
2017-10-24T08:52:44.346Z,101850.43
2017-10-24T09:08:15.042Z,101865.13
2017-10-24T09:10:52.481Z,101866.16
2017-10-24T09:13:26.140Z,101851.20
2017-10-24T09:16:08.505Z,101853.30
2017-10-24T09:18:49.246Z,101853.06
2017-10-24T09:21:26.564Z,101843.78
2017-10-24T09:24:00.208Z,101839.70
2017-10-24T09:26:35.484Z,101838.21
2017-10-24T09:29:08.917Z,101836.41
2017-10-24T09:31:37.999Z,101846.66
2017-10-24T09:34:06.355Z,101850.59
2017-10-24T09:41:00.404Z,101855.25
2017-10-24T09:43:28.758Z,101860.19
2017-10-24T09:46:06.082Z,101843.53
2017-10-24T09:48:34.607Z,101845.50
2017-10-24T09:51:12.493Z,101842.96
2017-10-24T09:53:40.802Z,101840.34
2017-10-24T09:56:16.617Z,101841.92
2017-10-24T09:58:45.548Z,101841.49
2017-10-24T10:01:17.383Z,101848.21
2017-10-24T10:03:45.859Z,101844.12
2017-10-24T10:06:22.600Z,101849.77
2017-10-24T10:08:51.277Z,101846.52
2017-10-24T10:11:25.973Z,101852.81
2017-10-24T10:13:55.665Z,101851.48
2017-10-24T10:16:24.390Z,101852.96
2017-10-24T10:18:53.128Z,101852.81
2017-10-24T10:21:21.749Z,101847.96
2017-10-24T10:23:50.351Z,101844.03
2017-10-24T10:26:18.864Z,101841.73
2017-10-24T10:28:47.218Z,101841.01
2017-10-24T10:31:15.518Z,101846.25
2017-10-24T10:33:43.839Z,101845.92
2017-10-24T10:36:12.316Z,101852.12
2017-10-24T10:38:40.643Z,101853.87
2017-10-24T10:41:09.252Z,101850.84
2017-10-24T10:43:37.543Z,101847.24
2017-10-24T10:46:06.159Z,101847.81
2017-10-24T10:48:34.819Z,101830.94
2017-10-24T10:51:03.338Z,101834.14
2017-10-24T10:53:31.833Z,101835.36
2017-10-24T10:56:00.204Z,101836.81
2017-10-24T10:58:28.707Z,101837.89
2017-10-24T11:00:57.287Z,101842.48
2017-10-24T11:03:25.716Z,101850.67
2017-10-24T11:05:54.589Z,101855.67
2017-10-24T11:08:22.915Z,101854.28
2017-10-24T11:10:51.340Z,101845.73
2017-10-24T11:13:19.680Z,101851.97
2017-10-24T11:15:48.018Z,101850.32
2017-10-24T11:18:16.435Z,101859.09
2017-10-24T11:20:44.767Z,101859.66
2017-10-24T11:23:13.143Z,101860.84
2017-10-24T11:25:41.513Z,101857.23
2017-10-24T11:28:09.796Z,101859.50
2017-10-24T11:30:38.180Z,101854.68
2017-10-24T11:33:06.455Z,101851.80
2017-10-24T11:35:34.792Z,101850.32
2017-10-24T11:38:03.217Z,101846.14
2017-10-24T11:40:31.806Z,101847.47
2017-10-24T11:43:00.173Z,101860.94
2017-10-24T11:45:28.497Z,101856.06
2017-10-24T11:47:56.801Z,101844.45
2017-10-24T11:50:25.103Z,101845.83
2017-10-24T11:52:53.396Z,101846.48
2017-10-24T11:55:21.736Z,101834.56
2017-10-24T11:57:50.091Z,101833.12
2017-10-24T12:00:18.526Z,101835.24
2017-10-24T12:02:46.876Z,101838.05
2017-10-24T12:05:15.168Z,101836.48
2017-10-24T12:07:43.483Z,101833.02
2017-10-24T12:10:11.778Z,101831.23
2017-10-24T12:12:40.120Z,101832.64
2017-10-24T12:15:08.463Z,101837.89
2017-10-24T12:17:36.888Z,101831.50
2017-10-24T12:20:05.295Z,101820.48
2017-10-24T12:22:33.580Z,101816.08
2017-10-24T12:25:01.901Z,101822.14
2017-10-24T12:27:30.408Z,101820.99
2017-10-24T12:29:58.728Z,101817.41
2017-10-24T12:32:28.356Z,101809.79
2017-10-24T12:34:56.699Z,101801.75
2017-10-24T12:37:25.057Z,101796.34
2017-10-24T12:39:53.366Z,101799.19
2017-10-24T12:42:21.805Z,101799.19
2017-10-24T12:44:50.367Z,101802.06
2017-10-24T12:47:18.711Z,101794.87
2017-10-24T12:49:47.032Z,101790.45
2017-10-24T12:52:16.240Z,101788.67
2017-10-24T12:54:44.535Z,101798.33
2017-10-24T12:57:12.919Z,101800.13
2017-10-24T12:59:41.262Z,101796.12
2017-10-24T13:02:09.579Z,101791.03
2017-10-24T13:04:38.887Z,101787.81
2017-10-24T13:07:07.378Z,101779.55
2017-10-24T13:09:35.667Z,101774.06
2017-10-24T13:12:03.657Z,101769.94
2017-10-24T13:14:32.205Z,101756.59
2017-10-24T13:17:00.655Z,101755.48
2017-10-24T13:19:28.942Z,101761.33
2017-10-24T13:21:57.423Z,101755.26
2017-10-24T13:24:25.729Z,101746.59
2017-10-24T13:26:54.320Z,101741.59
2017-10-24T13:29:22.705Z,101742.84
2017-10-24T13:31:51.148Z,101738.58
2017-10-24T13:34:19.611Z,101746.69
2017-10-24T13:36:48.109Z,101745.86
2017-10-24T13:39:16.614Z,101746.13
2017-10-24T13:41:45.072Z,101744.58
2017-10-24T13:44:13.392Z,101741.80
2017-10-24T13:46:41.818Z,101742.16
2017-10-24T13:49:10.479Z,101740.04
2017-10-24T13:51:38.788Z,101741.93
2017-10-24T13:54:07.068Z,101745.34
2017-10-24T13:56:35.537Z,101753.67
2017-10-24T13:59:04.039Z,101757.48
2017-10-24T14:01:32.432Z,101759.77
2017-10-24T14:04:04.956Z,101748.05
2017-10-24T14:06:38.664Z,101743.38
2017-10-24T14:10:10.470Z,101748.64
2017-10-24T14:12:38.815Z,101755.45
2017-10-24T14:15:07.805Z,101750.45
2017-10-24T14:17:36.215Z,101739.77
2017-10-24T14:20:05.528Z,101730.67
2017-10-24T14:22:33.840Z,101732.64
2017-10-24T14:25:02.433Z,101734.97
2017-10-24T14:27:30.856Z,101737.98
2017-10-24T14:29:59.713Z,101740.92
2017-10-24T14:32:28.224Z,101744.21
2017-10-24T14:34:56.581Z,101738.14
2017-10-24T14:37:25.061Z,101744.45
2017-10-24T14:39:53.537Z,101742.48
2017-10-24T14:42:22.096Z,101735.69
2017-10-24T14:44:50.422Z,101730.94
2017-10-24T14:47:19.379Z,101727.73
2017-10-24T14:49:47.669Z,101734.87
2017-10-24T14:52:16.087Z,101738.08
2017-10-24T14:54:44.484Z,101731.59
2017-10-24T14:57:13.046Z,101730.36
2017-10-24T14:59:41.364Z,101734.55
2017-10-24T15:02:09.778Z,101742.73
2017-10-24T15:04:38.145Z,101741.19
2017-10-24T15:07:06.465Z,101745.25
2017-10-24T15:09:35.105Z,101736.52
2017-10-24T15:12:03.476Z,101734.87
2017-10-24T15:14:31.792Z,101737.91
2017-10-24T15:17:01.135Z,101732.41
2017-10-24T15:19:29.640Z,101745.08
2017-10-24T15:21:58.052Z,101739.02
2017-10-24T15:24:26.376Z,101748.39
2017-10-24T15:26:54.736Z,101747.76
2017-10-24T15:29:23.162Z,101741.38
2017-10-24T15:31:51.513Z,101741.82
2017-10-24T15:34:19.815Z,101735.50
2017-10-24T15:36:54.783Z,101729.52
2017-10-24T15:39:23.105Z,101718.56
2017-10-24T15:41:51.451Z,101726.16
2017-10-24T15:44:20.327Z,101727.14
2017-10-24T15:46:48.776Z,101721.92
2017-10-24T15:49:17.065Z,101717.38
2017-10-24T15:51:45.384Z,101719.59
2017-10-24T15:54:13.780Z,101723.16
2017-10-24T15:56:42.636Z,101719.59
2017-10-24T15:59:10.921Z,101726.35
2017-10-24T16:01:39.804Z,101723.16
2017-10-24T16:04:08.272Z,101723.16
2017-10-24T16:06:36.644Z,101725.17
2017-10-24T16:09:05.307Z,101724.71
2017-10-24T16:11:33.809Z,101727.50
2017-10-24T16:14:02.229Z,101733.98
2017-10-24T16:16:30.585Z,101735.95
2017-10-24T16:18:58.887Z,101731.52
2017-10-24T16:21:27.303Z,101732.91
2017-10-24T16:23:55.776Z,101733.68
2017-10-24T16:26:24.679Z,101723.34
2017-10-24T16:28:53.347Z,101722.94
2017-10-24T16:31:21.841Z,101716.62
2017-10-24T16:33:50.212Z,101720.16
2017-10-24T16:36:18.504Z,101720.09
2017-10-24T16:38:47.409Z,101710.42
2017-10-24T16:41:16.151Z,101711.41
2017-10-24T16:43:44.420Z,101714.85
2017-10-24T16:46:12.723Z,101712.50
2017-10-24T16:48:41.251Z,101702.34
2017-10-24T16:51:09.689Z,101700.45
2017-10-24T16:53:38.583Z,101707.13
2017-10-24T16:56:07.062Z,101706.47
2017-10-24T16:58:35.495Z,101698.11
2017-10-24T17:01:03.831Z,101686.55
2017-10-24T17:03:32.352Z,101683.09
2017-10-24T17:06:00.705Z,101676.13
2017-10-24T17:08:29.363Z,101675.51
2017-10-24T17:10:57.735Z,101671.55
2017-10-24T17:13:26.191Z,101669.28
2017-10-24T17:15:54.667Z,101663.45
2017-10-24T17:18:22.968Z,101668.38
2017-10-24T17:20:51.348Z,101656.98
2017-10-24T17:23:19.722Z,101643.45
2017-10-24T17:25:48.044Z,101645.26
2017-10-24T17:28:16.332Z,101647.42
2017-10-24T17:30:44.648Z,101647.42
2017-10-24T17:33:12.943Z,101658.36
2017-10-24T17:35:41.276Z,101658.77
2017-10-24T17:38:09.761Z,101657.53
2017-10-24T17:40:38.100Z,101648.84
2017-10-24T17:43:06.591Z,101646.39
2017-10-24T17:45:34.884Z,101631.50
2017-10-24T17:48:03.152Z,101633.72
2017-10-24T17:50:31.460Z,101622.70
2017-10-24T17:52:59.755Z,101611.31
2017-10-24T17:55:28.087Z,101619.14
2017-10-24T17:57:59.685Z,101617.83
2017-10-24T18:00:28.915Z,101622.22
2017-10-24T18:02:57.321Z,101621.89
2017-10-24T18:05:26.724Z,101616.56
2017-10-24T18:07:55.372Z,101612.91
2017-10-24T18:10:23.715Z,101613.48
2017-10-24T18:12:52.252Z,101597.05
2017-10-24T18:15:20.584Z,101601.19
2017-10-24T18:17:50.285Z,101591.59
2017-10-24T18:20:18.830Z,101589.80
2017-10-24T18:22:47.197Z,101585.50
2017-10-24T18:25:16.252Z,101580.25
2017-10-24T18:27:46.104Z,101579.39
2017-10-24T18:30:14.474Z,101579.34
2017-10-24T18:32:42.801Z,101580.54
2017-10-24T18:35:11.305Z,101575.73
2017-10-24T18:37:39.767Z,101585.50
2017-10-24T18:40:08.907Z,101582.79
2017-10-24T18:42:39.168Z,101580.00
2017-10-24T18:45:07.567Z,101581.16
2017-10-24T18:47:37.694Z,101594.59
2017-10-24T18:50:07.959Z,101590.66
2017-10-24T18:52:36.672Z,101581.11
2017-10-24T18:55:11.230Z,101575.17
2017-10-24T18:57:39.699Z,101584.02
2017-10-24T19:00:08.332Z,101570.29
2017-10-24T19:02:36.699Z,101565.37
2017-10-24T19:05:08.023Z,101561.27
2017-10-24T19:07:43.212Z,101560.73
2017-10-24T19:10:11.864Z,101583.37
2017-10-24T19:12:41.012Z,101576.93
2017-10-24T19:15:10.308Z,101569.30
2017-10-24T19:17:39.444Z,101554.64
2017-10-24T19:20:08.687Z,101540.28
2017-10-24T19:22:38.130Z,101541.31
2017-10-24T19:25:07.332Z,101543.89
2017-10-24T19:27:36.246Z,101548.36
2017-10-24T19:30:05.366Z,101549.27
2017-10-24T19:32:33.948Z,101550.41
2017-10-24T19:35:02.279Z,101542.78
2017-10-24T19:37:31.427Z,101539.50
2017-10-24T19:39:59.763Z,101536.30
2017-10-24T19:42:28.541Z,101545.13
2017-10-24T19:44:56.893Z,101552.41
2017-10-24T19:47:26.176Z,101552.41
2017-10-24T19:49:54.647Z,101550.37
2017-10-24T19:52:23.507Z,101557.30
2017-10-24T19:54:52.383Z,101548.28
2017-10-24T19:57:20.744Z,101543.16
2017-10-24T19:59:50.048Z,101542.05
2017-10-24T20:02:18.644Z,101540.00
2017-10-24T20:04:47.008Z,101534.70
2017-10-24T20:07:15.568Z,101541.84
2017-10-24T20:09:43.851Z,101544.96
2017-10-24T20:12:13.199Z,101550.70
2017-10-24T20:14:41.539Z,101558.23
2017-10-24T20:17:11.580Z,101559.22
2017-10-24T20:19:39.967Z,101563.23
2017-10-24T20:22:09.569Z,101553.60
2017-10-24T20:24:38.065Z,101560.16
2017-10-24T20:27:06.423Z,101551.97
2017-10-24T20:29:38.276Z,101552.30
2017-10-24T20:32:07.299Z,101558.52
2017-10-24T20:34:35.758Z,101556.06
2017-10-24T20:37:04.178Z,101553.45
2017-10-24T20:39:32.679Z,101559.02
2017-10-24T20:42:01.262Z,101558.45
2017-10-24T20:44:30.008Z,101558.45
2017-10-24T20:47:01.722Z,101565.81
2017-10-24T20:49:31.042Z,101556.47
2017-10-24T20:51:59.428Z,101550.45
2017-10-24T20:54:28.016Z,101551.47
2017-10-24T20:56:57.022Z,101553.32
2017-10-24T20:59:25.423Z,101555.91
2017-10-24T21:01:53.896Z,101559.14
2017-10-24T21:04:22.187Z,101558.81
2017-10-24T21:06:50.885Z,101564.23
2017-10-24T21:09:19.451Z,101558.19
2017-10-24T21:11:47.815Z,101560.57
2017-10-24T21:14:16.139Z,101560.20
2017-10-24T21:16:45.213Z,101559.83
2017-10-24T21:19:13.603Z,101555.94
2017-10-24T21:21:41.912Z,101556.72
2017-10-24T21:24:10.245Z,101561.14
2017-10-24T21:26:38.677Z,101559.80
2017-10-24T21:29:06.976Z,101557.17
2017-10-24T21:31:35.338Z,101551.52
2017-10-24T21:34:03.627Z,101546.88
2017-10-24T21:36:31.959Z,101542.70
2017-10-24T21:39:01.259Z,101531.55
2017-10-24T21:41:29.603Z,101523.52
2017-10-24T21:43:58.124Z,101522.70
2017-10-24T21:46:27.211Z,101525.00
2017-10-24T21:48:55.531Z,101526.76
2017-10-24T21:51:23.856Z,101532.66
2017-10-24T21:53:52.180Z,101526.84
2017-10-24T21:56:20.544Z,101524.80
2017-10-24T21:58:48.812Z,101516.44
2017-10-24T22:01:17.113Z,101515.00
2017-10-24T22:03:45.403Z,101516.15
2017-10-24T22:06:13.858Z,101510.50
2017-10-24T22:08:43.122Z,101513.12
2017-10-24T22:11:11.459Z,101507.71
2017-10-24T22:13:39.743Z,101518.17
2017-10-24T22:16:08.182Z,101517.95
2017-10-24T22:18:36.643Z,101512.71
2017-10-24T22:21:04.951Z,101510.50
2017-10-24T22:23:33.248Z,101503.45
2017-10-24T22:26:01.535Z,101503.70
2017-10-24T22:28:29.815Z,101501.44
2017-10-24T22:30:58.116Z,101502.34
2017-10-24T22:33:26.499Z,101494.16
2017-10-24T22:35:55.680Z,101483.67
2017-10-24T22:38:24.219Z,101479.81
2017-10-24T22:40:52.575Z,101485.34
2017-10-24T22:43:21.036Z,101477.61
2017-10-24T22:45:49.359Z,101473.70
2017-10-24T22:48:17.792Z,101474.53
2017-10-24T22:50:46.104Z,101481.00
2017-10-24T22:53:14.390Z,101482.23
2017-10-24T22:55:42.706Z,101480.43
2017-10-24T22:58:11.639Z,101476.78
2017-10-24T23:00:39.943Z,101476.38
2017-10-24T23:03:08.232Z,101478.42
2017-10-24T23:05:36.560Z,101476.86
2017-10-24T23:08:04.888Z,101473.18
2017-10-24T23:10:33.378Z,101473.91
2017-10-24T23:13:01.721Z,101473.91
2017-10-24T23:15:30.233Z,101471.91
2017-10-24T23:17:58.671Z,101472.72
2017-10-24T23:20:27.059Z,101468.47
2017-10-24T23:22:55.511Z,101463.87
2017-10-24T23:25:23.811Z,101465.52
2017-10-24T23:27:52.147Z,101463.38
2017-10-24T23:30:20.563Z,101456.63
2017-10-24T23:32:48.840Z,101459.57
2017-10-24T23:35:17.316Z,101460.69
2017-10-24T23:37:45.619Z,101460.97
2017-10-24T23:40:13.936Z,101457.20
2017-10-24T23:42:42.335Z,101455.48
2017-10-24T23:45:10.660Z,101461.00
2017-10-24T23:47:38.966Z,101453.76
2017-10-24T23:50:08.236Z,101450.03
2017-10-24T23:52:36.503Z,101446.22
2017-10-24T23:55:04.873Z,101449.12
2017-10-24T23:57:33.156Z,101447.48
